ADDS METAR Data INFO
IDs: Format: Raw Decoded Include TAF

Data at: 1949 UTC 18 Feb 2018

KSEE 181947Z 23006KT 10SM SCT060 20/05 A2998
KSEE 181747Z 00000KT 10SM SCT060 17/02 A3001
KSEE 181647Z 00000KT 10SM SCT055 13/01 A3002
KSEE 181547Z 00000KT 10SM BKN055 08/01 A3002
KSEE 181335Z AUTO 00000KT 10SM CLR 07/00 A2999 RMK AO2
KSEE 181315Z AUTO 00000KT 10SM SCT060 07/00 A2999 RMK AO2
KSEE 181255Z AUTO 00000KT 10SM OVC060 07/M00 A2999 RMK AO2
KSEE 181235Z AUTO 31003KT 10SM BKN050 OVC065 07/M00 A2999 RMK AO2
KSEE 181215Z AUTO 00000KT 10SM SCT050 06/M01 A2999 RMK AO2
KSEE 181155Z AUTO 00000KT 10SM CLR 07/M00 A2999 RMK AO2
KSEE 181135Z AUTO 00000KT 10SM CLR 07/M01 A3000 RMK AO2
KSEE 181115Z AUTO 32004KT 10SM CLR 07/M01 A3000 RMK AO2
KSEE 181055Z AUTO 00000KT 10SM CLR 08/M01 A3001 RMK AO2
KSEE 181035Z AUTO 00000KT 10SM CLR 07/M01 A3001 RMK AO2
KSEE 181015Z AUTO 00000KT 10SM CLR 07/M01 A3001 RMK AO2
KSEE 180955Z AUTO 32003KT 10SM CLR 08/M00 A3002 RMK AO2
KSEE 180935Z AUTO 00000KT 10SM CLR 09/M00 A3002 RMK AO2
KSEE 180915Z AUTO 00000KT 10SM CLR 08/M01 A3003 RMK AO2
KSEE 180855Z AUTO 31005KT 10SM CLR 09/M01 A3003 RMK AO2
KSEE 180835Z AUTO 00000KT 10SM CLR 09/M01 A3003 RMK AO2
KSEE 180815Z AUTO 00000KT 10SM CLR 09/M00 A3004 RMK AO2
KSEE 180755Z AUTO 29004KT 10SM CLR 09/M00 A3004 RMK AO2
KSEE 180735Z AUTO 30004KT 10SM 10/M01 A3004 RMK AO2
KSEE 180715Z AUTO 00000KT 10SM CLR 10/M00 A3004 RMK AO2
KSEE 180655Z AUTO 29004KT 10SM CLR 10/M01 A3005 RMK AO2
KSEE 180635Z AUTO 00000KT 10SM CLR 11/M01 A3005 RMK AO2
KSEE 180615Z AUTO 00000KT 10SM CLR 11/M01 A3005 RMK AO2
KSEE 180555Z AUTO 00000KT 10SM CLR 12/M02 A3005 RMK AO2
KSEE 180535Z AUTO 00000KT 10SM CLR 13/M02 A3005 RMK AO2
KSEE 180515Z AUTO 00000KT 10SM CLR 13/M02 A3005 RMK AO2
KSEE 180455Z AUTO 28004KT 10SM CLR 13/M02 A3005 RMK AO2
KSEE 180447Z 00000KT 10SM SKC 13/M02 A3006
KSEE 180435Z AUTO 00000KT 10SM CLR 13/M02 A3005 RMK AO2
KSEE 180415Z AUTO 27005KT 10SM CLR 13/M02 A3005 RMK AO2
KSEE 180347Z 00000KT 10SM SKC 15/M03 A3006
KSEE 180247Z 29004KT 10SM SKC 17/M04 A3005
KSEE 180147Z 27005KT 10SM SKC 18/M05 A3005
KSEE 180047Z 29007KT 10SM SKC 22/M07 A3004
KSEE 172347Z 28012KT 10SM SKC 23/M07 A3003
KSEE 172247Z 27014KT 10SM SKC 24/M07 A3003
KSEE 172147Z 29006KT 10SM SKC 25/M06 A3003
KSEE 171947Z 00000KT 10SM SKC 23/M07 A3012
KSEE 171847Z 00000KT 10SM SKC 21/M08 A3015
KSEE 171747Z 00000KT 10SM SKC 17/M02 A3015
KSEE 171650Z 00000KT 10SM SKC 11/M02 A3014
KSEE 171550Z 00000KT 10SM SKC 07/M02 A3014
KSEE 171447Z 00000KT 10SM SKC 05/M02 A3011
KSEE 171335Z AUTO 00000KT 10SM CLR 05/M02 A3010 RMK AO2
KSEE 171315Z AUTO 00000KT 10SM CLR 05/M02 A3010 RMK AO2
KSEE 171255Z AUTO 00000KT 10SM CLR 06/M02 A3010 RMK AO2
KSEE 171235Z AUTO 00000KT 10SM CLR 06/M02 A3010 RMK AO2
KSEE 171215Z AUTO 00000KT 10SM CLR 05/M02 A3010 RMK AO2
KSEE 171155Z AUTO 00000KT 10SM CLR 05/M02 A3010 RMK AO2
KSEE 171135Z AUTO 32003KT 10SM CLR 06/M01 A3010 RMK AO2
KSEE 171115Z AUTO 33003KT 10SM CLR 06/M02 A3010 RMK AO2
KSEE 171055Z AUTO 00000KT 10SM CLR 06/M02 A3011 RMK AO2
KSEE 171035Z AUTO 00000KT 10SM CLR 06/M02 A3011 RMK AO2
KSEE 171015Z AUTO 00000KT 10SM CLR 07/M01 A3011 RMK AO2
KSEE 170955Z AUTO 00000KT 10SM CLR 07/M01 A3011 RMK AO2
KSEE 170935Z AUTO 00000KT 10SM CLR 07/M01 A3012 RMK AO2
KSEE 170915Z AUTO 00000KT 10SM CLR 07/M02 A3011 RMK AO2
KSEE 170855Z AUTO 00000KT 10SM CLR 07/M02 A3012 RMK AO2
KSEE 170835Z AUTO 00000KT 10SM CLR 08/M02 A3012 RMK AO2
KSEE 170815Z AUTO 00000KT 10SM CLR 08/M02 A3012 RMK AO2
KSEE 170755Z AUTO 29003KT 10SM CLR 08/M02 A3012 RMK AO2